sensor_id;sensor_type;location;lat;lon;timestamp;temperature;humidity
306;DHT22;137;48.578;9.180;2022-07-03T00:00:29;18.50;98.20
306;DHT22;137;48.578;9.180;2022-07-03T00:02:56;18.40;98.20
306;DHT22;137;48.578;9.180;2022-07-03T00:05:23;18.40;98.20
306;DHT22;137;48.578;9.180;2022-07-03T00:07:50;18.30;98.20
306;DHT22;137;48.578;9.180;2022-07-03T00:10:17;18.30;98.20
306;DHT22;137;48.578;9.180;2022-07-03T00:12:44;18.20;98.20
306;DHT22;137;48.578;9.180;2022-07-03T00:15:12;18.20;98.20
306;DHT22;137;48.578;9.180;2022-07-03T00:17:39;18.20;98.20
306;DHT22;137;48.578;9.180;2022-07-03T00:20:07;18.20;98.20
306;DHT22;137;48.578;9.180;2022-07-03T00:22:37;18.20;98.20
306;DHT22;137;48.578;9.180;2022-07-03T00:25:07;18.10;98.20
306;DHT22;137;48.578;9.180;2022-07-03T00:27:38;18.20;98.20
306;DHT22;137;48.578;9.180;2022-07-03T00:30:07;18.20;98.20
306;DHT22;137;48.578;9.180;2022-07-03T00:32:39;18.10;98.20
306;DHT22;137;48.578;9.180;2022-07-03T00:35:08;18.10;98.20
306;DHT22;137;48.578;9.180;2022-07-03T00:37:35;18.10;98.20
306;DHT22;137;48.578;9.180;2022-07-03T00:40:02;18.10;98.20
306;DHT22;137;48.578;9.180;2022-07-03T00:42:30;18.10;98.20
306;DHT22;137;48.578;9.180;2022-07-03T00:44:57;18.00;98.20
306;DHT22;137;48.578;9.180;2022-07-03T00:47:26;17.90;98.20
306;DHT22;137;48.578;9.180;2022-07-03T00:49:56;17.80;98.20
306;DHT22;137;48.578;9.180;2022-07-03T00:52:24;17.80;98.20
306;DHT22;137;48.578;9.180;2022-07-03T00:54:52;17.80;98.20
306;DHT22;137;48.578;9.180;2022-07-03T00:57:20;17.80;98.20
306;DHT22;137;48.578;9.180;2022-07-03T00:59:47;17.80;98.20
306;DHT22;137;48.578;9.180;2022-07-03T01:02:22;17.80;98.20
306;DHT22;137;48.578;9.180;2022-07-03T01:04:52;17.70;98.20
306;DHT22;137;48.578;9.180;2022-07-03T01:07:36;17.70;98.20
306;DHT22;137;48.578;9.180;2022-07-03T01:10:07;17.60;98.20
306;DHT22;137;48.578;9.180;2022-07-03T01:12:44;17.60;98.20
306;DHT22;137;48.578;9.180;2022-07-03T01:15:18;17.70;98.20
306;DHT22;137;48.578;9.180;2022-07-03T01:17:56;17.70;98.20
306;DHT22;137;48.578;9.180;2022-07-03T01:20:28;17.70;98.20
306;DHT22;137;48.578;9.180;2022-07-03T01:23:00;17.70;98.20
306;DHT22;137;48.578;9.180;2022-07-03T01:25:38;17.80;98.20
306;DHT22;137;48.578;9.180;2022-07-03T01:28:11;17.80;98.20
306;DHT22;137;48.578;9.180;2022-07-03T01:30:40;17.70;98.20
306;DHT22;137;48.578;9.180;2022-07-03T01:33:08;17.70;98.20
306;DHT22;137;48.578;9.180;2022-07-03T01:35:37;17.60;98.20
306;DHT22;137;48.578;9.180;2022-07-03T01:38:07;17.60;98.20
306;DHT22;137;48.578;9.180;2022-07-03T01:40:37;17.60;98.20
306;DHT22;137;48.578;9.180;2022-07-03T01:43:07;17.60;98.20
306;DHT22;137;48.578;9.180;2022-07-03T01:45:37;17.50;98.20
306;DHT22;137;48.578;9.180;2022-07-03T01:48:06;17.50;98.20
306;DHT22;137;48.578;9.180;2022-07-03T01:50:34;17.40;98.20
306;DHT22;137;48.578;9.180;2022-07-03T01:53:03;17.40;98.20
306;DHT22;137;48.578;9.180;2022-07-03T01:55:33;17.30;98.20
306;DHT22;137;48.578;9.180;2022-07-03T01:58:00;17.20;98.20
306;DHT22;137;48.578;9.180;2022-07-03T02:00:29;17.10;98.20
306;DHT22;137;48.578;9.180;2022-07-03T02:02:58;17.00;98.20
306;DHT22;137;48.578;9.180;2022-07-03T02:05:44;16.90;98.20
306;DHT22;137;48.578;9.180;2022-07-03T02:08:35;16.90;98.20
306;DHT22;137;48.578;9.180;2022-07-03T02:11:10;16.80;98.20
306;DHT22;137;48.578;9.180;2022-07-03T02:13:43;16.70;98.20
306;DHT22;137;48.578;9.180;2022-07-03T02:16:16;16.60;98.20
306;DHT22;137;48.578;9.180;2022-07-03T02:18:53;16.50;98.20
306;DHT22;137;48.578;9.180;2022-07-03T02:21:25;16.40;98.20
306;DHT22;137;48.578;9.180;2022-07-03T02:23:59;16.40;98.20
306;DHT22;137;48.578;9.180;2022-07-03T02:26:32;16.30;98.20
306;DHT22;137;48.578;9.180;2022-07-03T02:29:03;16.30;98.20
306;DHT22;137;48.578;9.180;2022-07-03T02:31:37;16.30;98.20
306;DHT22;137;48.578;9.180;2022-07-03T02:34:06;16.30;98.20
306;DHT22;137;48.578;9.180;2022-07-03T02:36:35;16.30;98.20
306;DHT22;137;48.578;9.180;2022-07-03T02:39:04;16.30;98.20
306;DHT22;137;48.578;9.180;2022-07-03T02:41:46;16.30;98.20
306;DHT22;137;48.578;9.180;2022-07-03T02:44:23;16.20;98.20
306;DHT22;137;48.578;9.180;2022-07-03T02:47:00;16.20;98.20
306;DHT22;137;48.578;9.180;2022-07-03T02:49:43;16.10;98.20
306;DHT22;137;48.578;9.180;2022-07-03T02:52:24;16.10;98.20
306;DHT22;137;48.578;9.180;2022-07-03T02:54:55;16.20;98.20
306;DHT22;137;48.578;9.180;2022-07-03T02:57:23;16.10;98.20
306;DHT22;137;48.578;9.180;2022-07-03T02:59:53;16.00;98.20
306;DHT22;137;48.578;9.180;2022-07-03T03:02:38;16.00;98.20
306;DHT22;137;48.578;9.180;2022-07-03T03:05:12;15.90;98.20
306;DHT22;137;48.578;9.180;2022-07-03T03:07:48;15.90;98.20
306;DHT22;137;48.578;9.180;2022-07-03T03:10:19;15.90;98.20
306;DHT22;137;48.578;9.180;2022-07-03T03:12:51;15.90;98.20
306;DHT22;137;48.578;9.180;2022-07-03T03:15:20;15.90;98.20
306;DHT22;137;48.578;9.180;2022-07-03T03:17:56;15.90;98.20
306;DHT22;137;48.578;9.180;2022-07-03T03:20:27;15.90;98.20
306;DHT22;137;48.578;9.180;2022-07-03T03:23:05;15.90;98.20
306;DHT22;137;48.578;9.180;2022-07-03T03:25:35;15.80;98.20
306;DHT22;137;48.578;9.180;2022-07-03T03:28:03;15.80;98.20
306;DHT22;137;48.578;9.180;2022-07-03T03:30:30;15.80;98.20
306;DHT22;137;48.578;9.180;2022-07-03T03:32:58;15.80;98.20
306;DHT22;137;48.578;9.180;2022-07-03T03:35:25;15.80;98.20
306;DHT22;137;48.578;9.180;2022-07-03T03:37:53;15.70;98.20
306;DHT22;137;48.578;9.180;2022-07-03T03:40:20;15.70;98.20
306;DHT22;137;48.578;9.180;2022-07-03T03:42:46;15.70;98.20
306;DHT22;137;48.578;9.180;2022-07-03T03:45:13;15.80;98.20
306;DHT22;137;48.578;9.180;2022-07-03T03:47:40;15.80;98.20
306;DHT22;137;48.578;9.180;2022-07-03T03:50:09;15.80;98.20
306;DHT22;137;48.578;9.180;2022-07-03T03:52:36;15.90;98.20
306;DHT22;137;48.578;9.180;2022-07-03T03:55:03;15.90;98.20
306;DHT22;137;48.578;9.180;2022-07-03T03:57:30;15.90;98.20
306;DHT22;137;48.578;9.180;2022-07-03T03:59:57;15.90;98.20
306;DHT22;137;48.578;9.180;2022-07-03T04:02:24;16.00;98.20
306;DHT22;137;48.578;9.180;2022-07-03T04:04:51;15.90;98.20
306;DHT22;137;48.578;9.180;2022-07-03T04:07:19;16.00;98.20
306;DHT22;137;48.578;9.180;2022-07-03T04:09:46;16.00;98.20
306;DHT22;137;48.578;9.180;2022-07-03T04:12:13;16.00;98.20
306;DHT22;137;48.578;9.180;2022-07-03T04:14:40;16.10;98.20
306;DHT22;137;48.578;9.180;2022-07-03T04:17:07;16.10;98.20
306;DHT22;137;48.578;9.180;2022-07-03T04:19:34;16.10;98.20
306;DHT22;137;48.578;9.180;2022-07-03T04:22:01;16.10;98.20
306;DHT22;137;48.578;9.180;2022-07-03T04:24:29;16.10;98.20
306;DHT22;137;48.578;9.180;2022-07-03T04:26:56;16.10;98.20
306;DHT22;137;48.578;9.180;2022-07-03T04:29:23;16.10;98.20
306;DHT22;137;48.578;9.180;2022-07-03T04:31:50;16.10;98.20
306;DHT22;137;48.578;9.180;2022-07-03T04:34:16;16.10;98.20
306;DHT22;137;48.578;9.180;2022-07-03T04:36:43;16.20;98.20
306;DHT22;137;48.578;9.180;2022-07-03T04:39:10;16.20;98.20
306;DHT22;137;48.578;9.180;2022-07-03T04:41:38;16.30;98.20
306;DHT22;137;48.578;9.180;2022-07-03T04:44:05;16.30;98.20
306;DHT22;137;48.578;9.180;2022-07-03T04:46:32;16.40;98.20
306;DHT22;137;48.578;9.180;2022-07-03T04:48:59;16.40;98.20
306;DHT22;137;48.578;9.180;2022-07-03T04:51:26;16.50;98.20
306;DHT22;137;48.578;9.180;2022-07-03T04:53:52;16.60;98.20
306;DHT22;137;48.578;9.180;2022-07-03T04:56:19;16.70;98.20
306;DHT22;137;48.578;9.180;2022-07-03T04:58:47;16.90;98.20
306;DHT22;137;48.578;9.180;2022-07-03T05:01:14;17.00;98.20
306;DHT22;137;48.578;9.180;2022-07-03T05:03:41;17.30;98.20
306;DHT22;137;48.578;9.180;2022-07-03T05:06:08;17.80;98.20
306;DHT22;137;48.578;9.180;2022-07-03T05:08:35;18.40;98.20
306;DHT22;137;48.578;9.180;2022-07-03T05:11:01;19.00;98.20
306;DHT22;137;48.578;9.180;2022-07-03T05:13:28;19.70;98.20
306;DHT22;137;48.578;9.180;2022-07-03T05:15:56;20.20;98.20
306;DHT22;137;48.578;9.180;2022-07-03T05:18:23;20.70;98.20
306;DHT22;137;48.578;9.180;2022-07-03T05:20:50;21.00;98.20
306;DHT22;137;48.578;9.180;2022-07-03T05:23:17;21.20;98.20
306;DHT22;137;48.578;9.180;2022-07-03T05:25:44;21.50;98.20
306;DHT22;137;48.578;9.180;2022-07-03T05:28:10;21.50;98.20
306;DHT22;137;48.578;9.180;2022-07-03T05:30:37;21.70;98.20
306;DHT22;137;48.578;9.180;2022-07-03T05:33:05;21.70;98.20
306;DHT22;137;48.578;9.180;2022-07-03T05:35:32;21.80;98.20
306;DHT22;137;48.578;9.180;2022-07-03T05:37:59;21.80;98.20
306;DHT22;137;48.578;9.180;2022-07-03T05:40:26;21.90;98.20
306;DHT22;137;48.578;9.180;2022-07-03T05:42:53;22.00;98.20
306;DHT22;137;48.578;9.180;2022-07-03T05:45:20;22.10;98.20
306;DHT22;137;48.578;9.180;2022-07-03T05:47:47;22.00;98.20
306;DHT22;137;48.578;9.180;2022-07-03T05:50:15;22.00;98.20
306;DHT22;137;48.578;9.180;2022-07-03T05:52:42;22.00;98.20
306;DHT22;137;48.578;9.180;2022-07-03T05:55:09;21.90;98.20
306;DHT22;137;48.578;9.180;2022-07-03T05:57:36;21.90;98.20
306;DHT22;137;48.578;9.180;2022-07-03T06:00:04;22.00;98.20
306;DHT22;137;48.578;9.180;2022-07-03T06:02:31;22.10;98.20
306;DHT22;137;48.578;9.180;2022-07-03T06:04:58;22.30;98.20
306;DHT22;137;48.578;9.180;2022-07-03T06:07:26;22.10;98.20
306;DHT22;137;48.578;9.180;2022-07-03T06:09:53;22.20;98.20
306;DHT22;137;48.578;9.180;2022-07-03T06:12:20;22.20;98.20
306;DHT22;137;48.578;9.180;2022-07-03T06:14:46;22.40;98.20
306;DHT22;137;48.578;9.180;2022-07-03T06:17:13;22.50;98.20
306;DHT22;137;48.578;9.180;2022-07-03T06:19:40;22.60;98.20
306;DHT22;137;48.578;9.180;2022-07-03T06:22:07;22.70;98.20
306;DHT22;137;48.578;9.180;2022-07-03T06:24:35;22.90;98.20
306;DHT22;137;48.578;9.180;2022-07-03T06:27:02;23.00;98.20
306;DHT22;137;48.578;9.180;2022-07-03T06:29:29;23.10;98.20
306;DHT22;137;48.578;9.180;2022-07-03T06:31:56;23.20;98.20
306;DHT22;137;48.578;9.180;2022-07-03T06:34:23;23.30;98.20
306;DHT22;137;48.578;9.180;2022-07-03T06:36:50;23.40;98.20
306;DHT22;137;48.578;9.180;2022-07-03T06:39:17;23.50;98.20
306;DHT22;137;48.578;9.180;2022-07-03T06:41:45;23.70;98.20
306;DHT22;137;48.578;9.180;2022-07-03T06:44:12;23.80;98.20
306;DHT22;137;48.578;9.180;2022-07-03T06:46:39;23.90;98.20
306;DHT22;137;48.578;9.180;2022-07-03T06:49:05;24.00;98.20
306;DHT22;137;48.578;9.180;2022-07-03T06:51:32;24.20;98.20
306;DHT22;137;48.578;9.180;2022-07-03T06:53:59;24.30;98.20
306;DHT22;137;48.578;9.180;2022-07-03T06:56:26;24.50;98.20
306;DHT22;137;48.578;9.180;2022-07-03T06:58:54;24.50;98.20
306;DHT22;137;48.578;9.180;2022-07-03T07:01:21;24.70;98.20
306;DHT22;137;48.578;9.180;2022-07-03T07:03:48;24.80;98.20
306;DHT22;137;48.578;9.180;2022-07-03T07:06:15;24.70;98.20
306;DHT22;137;48.578;9.180;2022-07-03T07:08:42;25.00;98.20
306;DHT22;137;48.578;9.180;2022-07-03T07:11:08;25.30;98.20
306;DHT22;137;48.578;9.180;2022-07-03T07:13:35;25.50;98.20
306;DHT22;137;48.578;9.180;2022-07-03T07:16:04;25.70;98.20
306;DHT22;137;48.578;9.180;2022-07-03T07:18:31;25.90;98.20
306;DHT22;137;48.578;9.180;2022-07-03T07:20:58;25.90;98.20
306;DHT22;137;48.578;9.180;2022-07-03T07:23:25;26.10;98.20
306;DHT22;137;48.578;9.180;2022-07-03T07:25:52;26.30;98.20
306;DHT22;137;48.578;9.180;2022-07-03T07:28:19;26.50;98.20
306;DHT22;137;48.578;9.180;2022-07-03T07:30:46;26.70;98.20
306;DHT22;137;48.578;9.180;2022-07-03T07:33:14;26.70;98.20
306;DHT22;137;48.578;9.180;2022-07-03T07:35:41;26.80;98.20
306;DHT22;137;48.578;9.180;2022-07-03T07:38:08;26.90;98.20
306;DHT22;137;48.578;9.180;2022-07-03T07:40:35;27.00;98.20
306;DHT22;137;48.578;9.180;2022-07-03T07:43:02;27.10;98.20
306;DHT22;137;48.578;9.180;2022-07-03T07:45:29;27.40;98.20
306;DHT22;137;48.578;9.180;2022-07-03T07:47:55;27.60;98.20
306;DHT22;137;48.578;9.180;2022-07-03T07:50:24;27.60;98.20
306;DHT22;137;48.578;9.180;2022-07-03T07:52:51;27.60;98.20
306;DHT22;137;48.578;9.180;2022-07-03T07:55:18;27.70;98.20
306;DHT22;137;48.578;9.180;2022-07-03T07:57:46;27.70;98.20
306;DHT22;137;48.578;9.180;2022-07-03T08:00:15;27.90;98.20
306;DHT22;137;48.578;9.180;2022-07-03T08:02:43;28.20;98.20
306;DHT22;137;48.578;9.180;2022-07-03T08:05:29;28.00;98.20
306;DHT22;137;48.578;9.180;2022-07-03T08:08:04;28.10;98.20
306;DHT22;137;48.578;9.180;2022-07-03T08:10:34;27.90;98.20
306;DHT22;137;48.578;9.180;2022-07-03T08:13:01;27.90;98.20
306;DHT22;137;48.578;9.180;2022-07-03T08:15:28;28.30;98.20
306;DHT22;137;48.578;9.180;2022-07-03T08:17:55;28.40;98.20
306;DHT22;137;48.578;9.180;2022-07-03T08:20:22;28.60;98.20
306;DHT22;137;48.578;9.180;2022-07-03T08:22:50;28.80;98.20
306;DHT22;137;48.578;9.180;2022-07-03T08:25:17;28.80;98.20
306;DHT22;137;48.578;9.180;2022-07-03T08:27:44;29.20;98.20
306;DHT22;137;48.578;9.180;2022-07-03T08:30:12;29.30;98.20
306;DHT22;137;48.578;9.180;2022-07-03T08:32:40;29.30;98.20
306;DHT22;137;48.578;9.180;2022-07-03T08:35:07;29.60;98.20
306;DHT22;137;48.578;9.180;2022-07-03T08:37:34;29.70;98.20
306;DHT22;137;48.578;9.180;2022-07-03T08:40:03;29.90;98.20
306;DHT22;137;48.578;9.180;2022-07-03T08:42:30;29.80;98.20
306;DHT22;137;48.578;9.180;2022-07-03T08:45:00;29.90;98.20
306;DHT22;137;48.578;9.180;2022-07-03T08:47:29;29.90;98.20
306;DHT22;137;48.578;9.180;2022-07-03T08:50:00;30.00;98.20
306;DHT22;137;48.578;9.180;2022-07-03T08:52:28;30.10;96.90
306;DHT22;137;48.578;9.180;2022-07-03T08:54:54;30.00;97.70
306;DHT22;137;48.578;9.180;2022-07-03T08:57:23;30.10;97.40
306;DHT22;137;48.578;9.180;2022-07-03T08:59:52;30.20;95.30
306;DHT22;137;48.578;9.180;2022-07-03T09:02:20;30.30;95.80
306;DHT22;137;48.578;9.180;2022-07-03T09:04:47;30.20;95.40
306;DHT22;137;48.578;9.180;2022-07-03T09:07:18;30.30;96.50
306;DHT22;137;48.578;9.180;2022-07-03T09:09:45;30.10;97.40
306;DHT22;137;48.578;9.180;2022-07-03T09:12:13;29.60;97.80
306;DHT22;137;48.578;9.180;2022-07-03T09:14:44;29.60;98.20
306;DHT22;137;48.578;9.180;2022-07-03T09:17:11;30.10;97.80
306;DHT22;137;48.578;9.180;2022-07-03T09:19:41;30.30;97.80
306;DHT22;137;48.578;9.180;2022-07-03T09:22:22;30.70;97.90
306;DHT22;137;48.578;9.180;2022-07-03T09:24:51;30.90;94.40
306;DHT22;137;48.578;9.180;2022-07-03T09:27:19;31.00;94.70
306;DHT22;137;48.578;9.180;2022-07-03T09:30:06;31.00;93.70
306;DHT22;137;48.578;9.180;2022-07-03T09:32:41;30.50;95.10
306;DHT22;137;48.578;9.180;2022-07-03T09:35:16;30.70;93.30
306;DHT22;137;48.578;9.180;2022-07-03T09:37:48;31.00;94.00
306;DHT22;137;48.578;9.180;2022-07-03T09:40:16;30.80;92.40
306;DHT22;137;48.578;9.180;2022-07-03T09:42:57;30.90;94.90
306;DHT22;137;48.578;9.180;2022-07-03T09:45:26;31.20;91.10
306;DHT22;137;48.578;9.180;2022-07-03T09:47:53;31.60;89.80
306;DHT22;137;48.578;9.180;2022-07-03T09:50:20;31.60;90.70
306;DHT22;137;48.578;9.180;2022-07-03T09:52:47;31.70;90.00
306;DHT22;137;48.578;9.180;2022-07-03T09:55:16;31.80;88.60
306;DHT22;137;48.578;9.180;2022-07-03T09:57:45;31.60;89.00
306;DHT22;137;48.578;9.180;2022-07-03T10:00:26;31.70;88.50
306;DHT22;137;48.578;9.180;2022-07-03T10:03:03;31.80;87.80
306;DHT22;137;48.578;9.180;2022-07-03T10:05:33;32.30;86.90
306;DHT22;137;48.578;9.180;2022-07-03T10:08:01;32.40;87.10
306;DHT22;137;48.578;9.180;2022-07-03T10:10:30;32.20;87.80
306;DHT22;137;48.578;9.180;2022-07-03T10:12:57;32.30;87.30
306;DHT22;137;48.578;9.180;2022-07-03T10:15:28;32.50;84.90
306;DHT22;137;48.578;9.180;2022-07-03T10:17:57;32.60;85.40
306;DHT22;137;48.578;9.180;2022-07-03T10:20:26;32.20;84.00
306;DHT22;137;48.578;9.180;2022-07-03T10:22:54;31.90;87.60
306;DHT22;137;48.578;9.180;2022-07-03T10:25:22;32.30;86.10
306;DHT22;137;48.578;9.180;2022-07-03T10:27:50;32.70;85.20
306;DHT22;137;48.578;9.180;2022-07-03T10:30:18;32.90;83.00
306;DHT22;137;48.578;9.180;2022-07-03T10:32:48;33.20;83.10
306;DHT22;137;48.578;9.180;2022-07-03T10:35:17;33.00;80.70
306;DHT22;137;48.578;9.180;2022-07-03T10:40:41;33.10;81.90
306;DHT22;137;48.578;9.180;2022-07-03T10:43:28;33.30;81.90
306;DHT22;137;48.578;9.180;2022-07-03T10:46:13;33.40;82.00
306;DHT22;137;48.578;9.180;2022-07-03T10:48:59;32.50;82.90
306;DHT22;137;48.578;9.180;2022-07-03T10:51:27;32.10;86.40
306;DHT22;137;48.578;9.180;2022-07-03T10:54:14;32.60;84.50
306;DHT22;137;48.578;9.180;2022-07-03T10:57:07;32.60;86.60
306;DHT22;137;48.578;9.180;2022-07-03T11:02:38;31.90;85.60
306;DHT22;137;48.578;9.180;2022-07-03T11:05:15;32.10;85.60
306;DHT22;137;48.578;9.180;2022-07-03T11:08:05;32.90;84.80
306;DHT22;137;48.578;9.180;2022-07-03T11:10:33;32.90;81.90
306;DHT22;137;48.578;9.180;2022-07-03T11:13:04;33.10;82.60
306;DHT22;137;48.578;9.180;2022-07-03T11:15:33;33.50;82.00
306;DHT22;137;48.578;9.180;2022-07-03T11:18:16;33.60;81.30
306;DHT22;137;48.578;9.180;2022-07-03T11:21:28;33.60;82.90
306;DHT22;137;48.578;9.180;2022-07-03T11:27:18;33.50;81.50
306;DHT22;137;48.578;9.180;2022-07-03T11:29:50;33.50;79.10
306;DHT22;137;48.578;9.180;2022-07-03T11:32:47;33.20;83.10
306;DHT22;137;48.578;9.180;2022-07-03T11:35:50;33.10;82.20
306;DHT22;137;48.578;9.180;2022-07-03T11:38:25;32.40;84.00
306;DHT22;137;48.578;9.180;2022-07-03T11:40:55;33.00;82.80
306;DHT22;137;48.578;9.180;2022-07-03T11:43:22;33.60;82.60
306;DHT22;137;48.578;9.180;2022-07-03T11:45:50;34.00;80.70
306;DHT22;137;48.578;9.180;2022-07-03T11:48:18;34.30;80.60
306;DHT22;137;48.578;9.180;2022-07-03T11:50:47;34.10;77.70
306;DHT22;137;48.578;9.180;2022-07-03T11:53:24;34.00;79.50
306;DHT22;137;48.578;9.180;2022-07-03T11:55:56;33.90;78.00
306;DHT22;137;48.578;9.180;2022-07-03T11:58:25;34.00;78.10
306;DHT22;137;48.578;9.180;2022-07-03T12:00:52;33.70;78.90
306;DHT22;137;48.578;9.180;2022-07-03T12:03:24;33.40;78.80
306;DHT22;137;48.578;9.180;2022-07-03T12:05:57;33.70;78.60
306;DHT22;137;48.578;9.180;2022-07-03T12:08:28;33.50;77.70
306;DHT22;137;48.578;9.180;2022-07-03T12:11:03;32.90;79.40
306;DHT22;137;48.578;9.180;2022-07-03T12:13:32;32.40;80.80
306;DHT22;137;48.578;9.180;2022-07-03T12:16:07;32.40;78.30
306;DHT22;137;48.578;9.180;2022-07-03T12:18:48;32.30;79.90
306;DHT22;137;48.578;9.180;2022-07-03T12:21:16;32.30;77.30
306;DHT22;137;48.578;9.180;2022-07-03T12:23:46;32.70;81.10
306;DHT22;137;48.578;9.180;2022-07-03T12:26:14;33.50;79.80
306;DHT22;137;48.578;9.180;2022-07-03T12:28:52;34.10;78.90
306;DHT22;137;48.578;9.180;2022-07-03T12:31:20;33.90;76.70
306;DHT22;137;48.578;9.180;2022-07-03T12:33:47;33.90;77.40
306;DHT22;137;48.578;9.180;2022-07-03T12:36:14;34.10;75.90
306;DHT22;137;48.578;9.180;2022-07-03T12:38:41;34.10;79.40
306;DHT22;137;48.578;9.180;2022-07-03T12:41:10;33.90;75.40
306;DHT22;137;48.578;9.180;2022-07-03T12:43:38;33.80;77.70
306;DHT22;137;48.578;9.180;2022-07-03T12:46:16;34.10;75.70
306;DHT22;137;48.578;9.180;2022-07-03T12:48:47;34.30;77.00
306;DHT22;137;48.578;9.180;2022-07-03T12:51:15;34.50;74.90
306;DHT22;137;48.578;9.180;2022-07-03T12:53:42;34.60;75.30
306;DHT22;137;48.578;9.180;2022-07-03T12:56:11;34.50;74.30
306;DHT22;137;48.578;9.180;2022-07-03T12:58:39;34.70;73.40
306;DHT22;137;48.578;9.180;2022-07-03T13:01:25;34.60;74.80
306;DHT22;137;48.578;9.180;2022-07-03T13:03:52;34.90;77.00
306;DHT22;137;48.578;9.180;2022-07-03T13:06:20;34.90;77.10
306;DHT22;137;48.578;9.180;2022-07-03T13:08:54;34.30;75.20
306;DHT22;137;48.578;9.180;2022-07-03T13:11:31;33.80;74.70
306;DHT22;137;48.578;9.180;2022-07-03T13:14:07;33.30;77.60
306;DHT22;137;48.578;9.180;2022-07-03T13:16:42;33.60;78.00
306;DHT22;137;48.578;9.180;2022-07-03T13:19:10;34.00;77.80
306;DHT22;137;48.578;9.180;2022-07-03T13:21:38;33.60;76.70
306;DHT22;137;48.578;9.180;2022-07-03T13:24:05;33.50;77.70
306;DHT22;137;48.578;9.180;2022-07-03T13:26:34;33.80;77.70
306;DHT22;137;48.578;9.180;2022-07-03T13:29:01;34.10;76.80
306;DHT22;137;48.578;9.180;2022-07-03T13:31:28;34.70;76.40
306;DHT22;137;48.578;9.180;2022-07-03T13:33:55;34.90;74.50
306;DHT22;137;48.578;9.180;2022-07-03T13:36:22;35.00;75.30
306;DHT22;137;48.578;9.180;2022-07-03T13:38:49;34.80;77.60
306;DHT22;137;48.578;9.180;2022-07-03T13:41:16;34.60;76.10
306;DHT22;137;48.578;9.180;2022-07-03T13:43:45;34.50;76.20
306;DHT22;137;48.578;9.180;2022-07-03T13:46:12;34.00;76.10
306;DHT22;137;48.578;9.180;2022-07-03T13:48:39;33.70;76.40
306;DHT22;137;48.578;9.180;2022-07-03T13:51:06;33.50;78.90
306;DHT22;137;48.578;9.180;2022-07-03T13:53:33;33.80;76.70
306;DHT22;137;48.578;9.180;2022-07-03T13:56:00;33.60;77.30
306;DHT22;137;48.578;9.180;2022-07-03T13:58:27;33.50;78.70
306;DHT22;137;48.578;9.180;2022-07-03T14:00:55;34.00;78.10
306;DHT22;137;48.578;9.180;2022-07-03T14:03:22;34.20;75.60
306;DHT22;137;48.578;9.180;2022-07-03T14:05:49;34.50;76.00
306;DHT22;137;48.578;9.180;2022-07-03T14:08:18;34.60;73.80
306;DHT22;137;48.578;9.180;2022-07-03T14:10:45;34.40;72.90
306;DHT22;137;48.578;9.180;2022-07-03T14:13:12;34.20;74.90
306;DHT22;137;48.578;9.180;2022-07-03T14:15:39;34.10;74.00
306;DHT22;137;48.578;9.180;2022-07-03T14:18:07;34.00;74.50
306;DHT22;137;48.578;9.180;2022-07-03T14:20:34;34.00;74.70
306;DHT22;137;48.578;9.180;2022-07-03T14:23:01;34.10;75.20
306;DHT22;137;48.578;9.180;2022-07-03T14:25:28;33.60;76.10
306;DHT22;137;48.578;9.180;2022-07-03T14:27:54;33.20;77.60
306;DHT22;137;48.578;9.180;2022-07-03T14:30:38;33.60;77.20
306;DHT22;137;48.578;9.180;2022-07-03T14:33:24;34.00;76.20
306;DHT22;137;48.578;9.180;2022-07-03T14:35:51;33.90;75.60
306;DHT22;137;48.578;9.180;2022-07-03T14:38:19;34.20;74.40
306;DHT22;137;48.578;9.180;2022-07-03T14:40:46;34.40;73.50
306;DHT22;137;48.578;9.180;2022-07-03T14:43:13;34.40;74.80
306;DHT22;137;48.578;9.180;2022-07-03T14:45:39;34.50;75.00
306;DHT22;137;48.578;9.180;2022-07-03T14:48:06;34.60;75.60
306;DHT22;137;48.578;9.180;2022-07-03T14:50:36;34.40;73.10
306;DHT22;137;48.578;9.180;2022-07-03T14:53:05;34.20;75.40
306;DHT22;137;48.578;9.180;2022-07-03T14:55:36;34.00;76.80
306;DHT22;137;48.578;9.180;2022-07-03T14:58:05;34.10;74.90
306;DHT22;137;48.578;9.180;2022-07-03T15:00:36;34.00;75.50
306;DHT22;137;48.578;9.180;2022-07-03T15:03:07;33.80;74.60
306;DHT22;137;48.578;9.180;2022-07-03T15:05:41;33.80;75.60
306;DHT22;137;48.578;9.180;2022-07-03T15:08:19;33.50;75.30
306;DHT22;137;48.578;9.180;2022-07-03T15:10:49;33.40;75.90
306;DHT22;137;48.578;9.180;2022-07-03T15:13:15;33.20;74.40
306;DHT22;137;48.578;9.180;2022-07-03T15:15:45;33.50;75.90
306;DHT22;137;48.578;9.180;2022-07-03T15:18:17;33.70;75.00
306;DHT22;137;48.578;9.180;2022-07-03T15:20:45;33.90;74.30
306;DHT22;137;48.578;9.180;2022-07-03T15:23:13;34.10;74.20
306;DHT22;137;48.578;9.180;2022-07-03T15:25:40;34.30;73.50
306;DHT22;137;48.578;9.180;2022-07-03T15:28:09;34.10;75.70
306;DHT22;137;48.578;9.180;2022-07-03T15:30:36;34.00;73.30
306;DHT22;137;48.578;9.180;2022-07-03T15:33:04;33.50;72.70
306;DHT22;137;48.578;9.180;2022-07-03T15:35:31;33.00;72.10
306;DHT22;137;48.578;9.180;2022-07-03T15:38:08;32.80;74.80
306;DHT22;137;48.578;9.180;2022-07-03T15:40:45;32.80;73.80
306;DHT22;137;48.578;9.180;2022-07-03T15:43:25;32.60;73.50
306;DHT22;137;48.578;9.180;2022-07-03T15:46:03;32.70;73.20
306;DHT22;137;48.578;9.180;2022-07-03T15:48:42;32.40;73.60
306;DHT22;137;48.578;9.180;2022-07-03T15:51:18;32.20;75.50
306;DHT22;137;48.578;9.180;2022-07-03T15:53:51;32.40;76.50
306;DHT22;137;48.578;9.180;2022-07-03T15:56:27;32.40;77.80
306;DHT22;137;48.578;9.180;2022-07-03T15:59:00;32.30;77.20
306;DHT22;137;48.578;9.180;2022-07-03T16:01:29;32.20;76.60
306;DHT22;137;48.578;9.180;2022-07-03T16:04:18;32.20;75.00
306;DHT22;137;48.578;9.180;2022-07-03T16:06:49;32.40;75.50
306;DHT22;137;48.578;9.180;2022-07-03T16:09:18;32.50;75.70
306;DHT22;137;48.578;9.180;2022-07-03T16:11:46;32.50;74.70
306;DHT22;137;48.578;9.180;2022-07-03T16:14:14;32.60;74.30
306;DHT22;137;48.578;9.180;2022-07-03T16:16:43;32.80;76.50
306;DHT22;137;48.578;9.180;2022-07-03T16:19:11;32.70;77.10
306;DHT22;137;48.578;9.180;2022-07-03T16:21:39;32.60;75.50
306;DHT22;137;48.578;9.180;2022-07-03T16:24:06;32.60;77.30
306;DHT22;137;48.578;9.180;2022-07-03T16:26:36;32.40;83.40
306;DHT22;137;48.578;9.180;2022-07-03T16:29:03;32.40;85.50
306;DHT22;137;48.578;9.180;2022-07-03T16:31:35;32.00;86.40
306;DHT22;137;48.578;9.180;2022-07-03T16:34:10;31.70;86.50
306;DHT22;137;48.578;9.180;2022-07-03T16:36:41;31.70;86.60
306;DHT22;137;48.578;9.180;2022-07-03T16:39:11;31.70;86.80
306;DHT22;137;48.578;9.180;2022-07-03T16:41:41;31.90;86.70
306;DHT22;137;48.578;9.180;2022-07-03T16:44:09;31.80;86.80
306;DHT22;137;48.578;9.180;2022-07-03T16:46:40;31.70;87.20
306;DHT22;137;48.578;9.180;2022-07-03T16:49:08;31.50;87.80
306;DHT22;137;48.578;9.180;2022-07-03T16:51:39;31.50;88.10
306;DHT22;137;48.578;9.180;2022-07-03T16:54:08;31.70;87.40
306;DHT22;137;48.578;9.180;2022-07-03T16:56:36;31.80;86.80
306;DHT22;137;48.578;9.180;2022-07-03T16:59:07;31.90;87.20
306;DHT22;137;48.578;9.180;2022-07-03T17:01:36;31.90;87.30